sensor_id;sensor_type;location;lat;lon;timestamp;P1;durP1;ratioP1;P2;durP2;ratioP2
24153;SDS011;12312;53.362;-1.518;2022-11-14T00:01:08;208.38;;;54.25;;
24153;SDS011;12312;53.362;-1.518;2022-11-14T00:03:36;211.07;;;54.20;;
24153;SDS011;12312;53.362;-1.518;2022-11-14T00:06:04;206.10;;;54.08;;
24153;SDS011;12312;53.362;-1.518;2022-11-14T00:08:31;234.70;;;55.85;;
24153;SDS011;12312;53.362;-1.518;2022-11-14T00:10:56;199.73;;;56.20;;
24153;SDS011;12312;53.362;-1.518;2022-11-14T00:13:22;221.02;;;56.03;;
24153;SDS011;12312;53.362;-1.518;2022-11-14T00:15:49;225.10;;;55.60;;
24153;SDS011;12312;53.362;-1.518;2022-11-14T00:18:18;211.23;;;54.33;;
24153;SDS011;12312;53.362;-1.518;2022-11-14T00:20:48;210.93;;;53.58;;
24153;SDS011;12312;53.362;-1.518;2022-11-14T00:23:15;209.05;;;55.00;;
24153;SDS011;12312;53.362;-1.518;2022-11-14T00:25:44;197.13;;;55.15;;
24153;SDS011;12312;53.362;-1.518;2022-11-14T00:28:11;197.57;;;55.28;;
24153;SDS011;12312;53.362;-1.518;2022-11-14T00:30:37;216.48;;;55.80;;
24153;SDS011;12312;53.362;-1.518;2022-11-14T00:33:03;191.98;;;54.05;;
24153;SDS011;12312;53.362;-1.518;2022-11-14T00:35:29;192.77;;;52.35;;
24153;SDS011;12312;53.362;-1.518;2022-11-14T00:37:55;199.75;;;55.28;;
24153;SDS011;12312;53.362;-1.518;2022-11-14T00:40:20;380.25;;;65.13;;
24153;SDS011;12312;53.362;-1.518;2022-11-14T00:42:46;193.10;;;53.75;;
24153;SDS011;12312;53.362;-1.518;2022-11-14T00:45:11;189.95;;;54.08;;
24153;SDS011;12312;53.362;-1.518;2022-11-14T00:47:38;177.65;;;52.08;;
24153;SDS011;12312;53.362;-1.518;2022-11-14T00:50:04;177.68;;;51.85;;
24153;SDS011;12312;53.362;-1.518;2022-11-14T00:52:30;186.57;;;51.45;;
24153;SDS011;12312;53.362;-1.518;2022-11-14T00:54:57;177.38;;;51.33;;
24153;SDS011;12312;53.362;-1.518;2022-11-14T00:57:22;208.98;;;53.58;;
24153;SDS011;12312;53.362;-1.518;2022-11-14T00:59:48;205.95;;;54.05;;
24153;SDS011;12312;53.362;-1.518;2022-11-14T01:02:13;219.68;;;55.70;;
24153;SDS011;12312;53.362;-1.518;2022-11-14T01:04:40;243.38;;;56.67;;
24153;SDS011;12312;53.362;-1.518;2022-11-14T01:07:06;236.85;;;58.83;;
24153;SDS011;12312;53.362;-1.518;2022-11-14T01:09:31;197.63;;;55.15;;
24153;SDS011;12312;53.362;-1.518;2022-11-14T01:11:57;221.15;;;56.65;;
24153;SDS011;12312;53.362;-1.518;2022-11-14T01:14:23;188.10;;;54.33;;
24153;SDS011;12312;53.362;-1.518;2022-11-14T01:16:49;201.85;;;55.63;;
24153;SDS011;12312;53.362;-1.518;2022-11-14T01:19:14;210.07;;;56.28;;
24153;SDS011;12312;53.362;-1.518;2022-11-14T01:21:40;213.30;;;57.63;;
24153;SDS011;12312;53.362;-1.518;2022-11-14T01:24:06;209.30;;;56.17;;
24153;SDS011;12312;53.362;-1.518;2022-11-14T01:26:32;193.57;;;52.95;;
24153;SDS011;12312;53.362;-1.518;2022-11-14T01:28:58;205.75;;;54.17;;
24153;SDS011;12312;53.362;-1.518;2022-11-14T01:31:25;213.80;;;54.50;;
24153;SDS011;12312;53.362;-1.518;2022-11-14T01:33:51;188.10;;;54.13;;
24153;SDS011;12312;53.362;-1.518;2022-11-14T01:36:25;181.43;;;55.40;;
24153;SDS011;12312;53.362;-1.518;2022-11-14T01:38:52;185.82;;;51.97;;
24153;SDS011;12312;53.362;-1.518;2022-11-14T01:41:19;171.77;;;49.72;;
24153;SDS011;12312;53.362;-1.518;2022-11-14T01:43:46;180.70;;;50.90;;
24153;SDS011;12312;53.362;-1.518;2022-11-14T01:48:56;176.88;;;50.63;;
24153;SDS011;12312;53.362;-1.518;2022-11-14T01:51:40;192.07;;;52.38;;
24153;SDS011;12312;53.362;-1.518;2022-11-14T01:54:11;214.75;;;52.97;;
24153;SDS011;12312;53.362;-1.518;2022-11-14T01:56:47;203.65;;;53.65;;
24153;SDS011;12312;53.362;-1.518;2022-11-14T01:59:19;218.57;;;54.05;;
24153;SDS011;12312;53.362;-1.518;2022-11-14T02:01:49;234.07;;;53.38;;
24153;SDS011;12312;53.362;-1.518;2022-11-14T02:04:17;285.10;;;58.08;;
24153;SDS011;12312;53.362;-1.518;2022-11-14T02:06:54;218.55;;;53.95;;
24153;SDS011;12312;53.362;-1.518;2022-11-14T02:09:24;518.10;;;63.25;;
24153;SDS011;12312;53.362;-1.518;2022-11-14T02:11:55;460.27;;;65.85;;
24153;SDS011;12312;53.362;-1.518;2022-11-14T02:14:23;438.67;;;62.67;;
24153;SDS011;12312;53.362;-1.518;2022-11-14T02:16:49;503.45;;;65.90;;
24153;SDS011;12312;53.362;-1.518;2022-11-14T02:19:17;355.75;;;58.45;;
24153;SDS011;12312;53.362;-1.518;2022-11-14T02:21:43;591.92;;;68.47;;
24153;SDS011;12312;53.362;-1.518;2022-11-14T02:24:09;417.95;;;60.22;;
24153;SDS011;12312;53.362;-1.518;2022-11-14T02:26:35;510.77;;;62.70;;
24153;SDS011;12312;53.362;-1.518;2022-11-14T02:29:03;553.97;;;63.25;;
24153;SDS011;12312;53.362;-1.518;2022-11-14T02:31:30;758.65;;;69.97;;
24153;SDS011;12312;53.362;-1.518;2022-11-14T02:33:57;525.67;;;64.40;;
24153;SDS011;12312;53.362;-1.518;2022-11-14T02:36:23;410.08;;;58.00;;
24153;SDS011;12312;53.362;-1.518;2022-11-14T02:38:49;923.72;;;75.45;;
24153;SDS011;12312;53.362;-1.518;2022-11-14T02:41:15;729.72;;;70.05;;
24153;SDS011;12312;53.362;-1.518;2022-11-14T02:43:41;735.55;;;70.88;;
24153;SDS011;12312;53.362;-1.518;2022-11-14T02:46:07;686.65;;;65.30;;
24153;SDS011;12312;53.362;-1.518;2022-11-14T02:48:34;700.95;;;66.93;;
24153;SDS011;12312;53.362;-1.518;2022-11-14T02:51:00;814.20;;;72.43;;
24153;SDS011;12312;53.362;-1.518;2022-11-14T02:53:26;617.45;;;68.93;;
24153;SDS011;12312;53.362;-1.518;2022-11-14T02:55:52;828.13;;;72.70;;
24153;SDS011;12312;53.362;-1.518;2022-11-14T02:58:17;569.42;;;62.63;;
24153;SDS011;12312;53.362;-1.518;2022-11-14T03:00:44;462.10;;;56.40;;
24153;SDS011;12312;53.362;-1.518;2022-11-14T03:03:09;682.22;;;63.92;;
24153;SDS011;12312;53.362;-1.518;2022-11-14T03:05:37;719.15;;;71.00;;
24153;SDS011;12312;53.362;-1.518;2022-11-14T03:08:03;741.58;;;69.07;;
24153;SDS011;12312;53.362;-1.518;2022-11-14T03:10:29;797.25;;;68.43;;
24153;SDS011;12312;53.362;-1.518;2022-11-14T03:12:55;721.38;;;66.20;;
24153;SDS011;12312;53.362;-1.518;2022-11-14T03:15:21;753.75;;;68.95;;
24153;SDS011;12312;53.362;-1.518;2022-11-14T03:17:48;721.90;;;67.63;;
24153;SDS011;12312;53.362;-1.518;2022-11-14T03:20:15;446.55;;;57.65;;
24153;SDS011;12312;53.362;-1.518;2022-11-14T03:22:42;806.42;;;73.35;;
24153;SDS011;12312;53.362;-1.518;2022-11-14T03:25:08;207.88;;;46.45;;
24153;SDS011;12312;53.362;-1.518;2022-11-14T03:27:33;286.38;;;49.40;;
24153;SDS011;12312;53.362;-1.518;2022-11-14T03:29:59;354.13;;;49.75;;
24153;SDS011;12312;53.362;-1.518;2022-11-14T03:32:25;201.55;;;43.88;;
24153;SDS011;12312;53.362;-1.518;2022-11-14T03:34:51;572.00;;;55.58;;
24153;SDS011;12312;53.362;-1.518;2022-11-14T03:37:17;483.73;;;51.22;;
24153;SDS011;12312;53.362;-1.518;2022-11-14T03:39:43;569.45;;;55.00;;
24153;SDS011;12312;53.362;-1.518;2022-11-14T03:42:10;381.45;;;50.55;;
24153;SDS011;12312;53.362;-1.518;2022-11-14T03:44:36;524.03;;;53.75;;
24153;SDS011;12312;53.362;-1.518;2022-11-14T03:47:02;458.10;;;49.10;;
24153;SDS011;12312;53.362;-1.518;2022-11-14T03:49:32;371.92;;;48.55;;
24153;SDS011;12312;53.362;-1.518;2022-11-14T03:51:58;365.90;;;49.05;;
24153;SDS011;12312;53.362;-1.518;2022-11-14T03:54:33;618.58;;;62.30;;
24153;SDS011;12312;53.362;-1.518;2022-11-14T03:56:58;493.98;;;54.85;;
24153;SDS011;12312;53.362;-1.518;2022-11-14T03:59:26;912.15;;;73.07;;
24153;SDS011;12312;53.362;-1.518;2022-11-14T04:01:53;948.85;;;74.60;;
24153;SDS011;12312;53.362;-1.518;2022-11-14T04:04:20;894.70;;;73.45;;
24153;SDS011;12312;53.362;-1.518;2022-11-14T04:06:45;221.82;;;41.53;;
24153;SDS011;12312;53.362;-1.518;2022-11-14T04:09:11;263.45;;;40.20;;
24153;SDS011;12312;53.362;-1.518;2022-11-14T04:14:27;160.23;;;36.83;;
24153;SDS011;12312;53.362;-1.518;2022-11-14T04:16:53;299.25;;;41.45;;
24153;SDS011;12312;53.362;-1.518;2022-11-14T04:19:18;296.25;;;42.97;;
24153;SDS011;12312;53.362;-1.518;2022-11-14T04:21:44;319.05;;;42.65;;
24153;SDS011;12312;53.362;-1.518;2022-11-14T04:24:10;403.75;;;45.60;;
24153;SDS011;12312;53.362;-1.518;2022-11-14T04:26:36;428.23;;;45.60;;
24153;SDS011;12312;53.362;-1.518;2022-11-14T04:29:01;422.20;;;46.30;;
24153;SDS011;12312;53.362;-1.518;2022-11-14T04:31:27;231.20;;;40.10;;
24153;SDS011;12312;53.362;-1.518;2022-11-14T04:33:53;273.98;;;40.85;;
24153;SDS011;12312;53.362;-1.518;2022-11-14T04:36:18;280.35;;;41.10;;
24153;SDS011;12312;53.362;-1.518;2022-11-14T04:38:44;254.82;;;42.28;;
24153;SDS011;12312;53.362;-1.518;2022-11-14T04:41:10;472.42;;;48.30;;
24153;SDS011;12312;53.362;-1.518;2022-11-14T04:43:37;151.82;;;37.60;;
24153;SDS011;12312;53.362;-1.518;2022-11-14T04:46:03;149.38;;;35.95;;
24153;SDS011;12312;53.362;-1.518;2022-11-14T04:48:29;322.63;;;40.20;;
24153;SDS011;12312;53.362;-1.518;2022-11-14T04:50:55;238.80;;;36.95;;
24153;SDS011;12312;53.362;-1.518;2022-11-14T04:53:21;386.45;;;43.08;;
24153;SDS011;12312;53.362;-1.518;2022-11-14T04:55:47;185.07;;;37.17;;
24153;SDS011;12312;53.362;-1.518;2022-11-14T04:58:13;203.73;;;36.97;;
24153;SDS011;12312;53.362;-1.518;2022-11-14T05:00:39;295.27;;;38.03;;
24153;SDS011;12312;53.362;-1.518;2022-11-14T05:03:04;172.75;;;34.22;;
24153;SDS011;12312;53.362;-1.518;2022-11-14T05:05:30;266.52;;;37.47;;
24153;SDS011;12312;53.362;-1.518;2022-11-14T05:07:56;126.47;;;33.63;;
24153;SDS011;12312;53.362;-1.518;2022-11-14T05:10:23;238.15;;;35.17;;
24153;SDS011;12312;53.362;-1.518;2022-11-14T05:12:51;205.98;;;33.72;;
24153;SDS011;12312;53.362;-1.518;2022-11-14T05:15:25;190.23;;;34.45;;
24153;SDS011;12312;53.362;-1.518;2022-11-14T05:17:51;362.58;;;41.88;;
24153;SDS011;12312;53.362;-1.518;2022-11-14T05:20:19;231.65;;;37.58;;
24153;SDS011;12312;53.362;-1.518;2022-11-14T05:22:45;209.00;;;35.05;;
24153;SDS011;12312;53.362;-1.518;2022-11-14T05:25:11;167.07;;;35.33;;
24153;SDS011;12312;53.362;-1.518;2022-11-14T05:27:36;189.85;;;37.30;;
24153;SDS011;12312;53.362;-1.518;2022-11-14T05:30:03;344.77;;;40.92;;
24153;SDS011;12312;53.362;-1.518;2022-11-14T05:32:28;162.68;;;34.22;;
24153;SDS011;12312;53.362;-1.518;2022-11-14T05:34:54;302.40;;;40.38;;
24153;SDS011;12312;53.362;-1.518;2022-11-14T05:37:19;340.95;;;41.63;;
24153;SDS011;12312;53.362;-1.518;2022-11-14T05:39:45;417.83;;;44.05;;
24153;SDS011;12312;53.362;-1.518;2022-11-14T05:42:10;207.55;;;37.40;;
24153;SDS011;12312;53.362;-1.518;2022-11-14T05:44:37;161.52;;;37.22;;
24153;SDS011;12312;53.362;-1.518;2022-11-14T05:47:02;344.00;;;41.10;;
24153;SDS011;12312;53.362;-1.518;2022-11-14T05:49:28;260.70;;;36.67;;
24153;SDS011;12312;53.362;-1.518;2022-11-14T05:51:54;176.50;;;35.30;;
24153;SDS011;12312;53.362;-1.518;2022-11-14T05:54:20;211.07;;;36.63;;
24153;SDS011;12312;53.362;-1.518;2022-11-14T05:56:46;212.15;;;39.13;;
24153;SDS011;12312;53.362;-1.518;2022-11-14T05:59:12;249.80;;;37.70;;
24153;SDS011;12312;53.362;-1.518;2022-11-14T06:01:37;195.90;;;37.50;;
24153;SDS011;12312;53.362;-1.518;2022-11-14T06:04:04;289.88;;;41.63;;
24153;SDS011;12312;53.362;-1.518;2022-11-14T06:06:31;297.73;;;39.75;;
24153;SDS011;12312;53.362;-1.518;2022-11-14T06:08:56;280.70;;;40.40;;
24153;SDS011;12312;53.362;-1.518;2022-11-14T06:11:22;180.80;;;37.08;;
24153;SDS011;12312;53.362;-1.518;2022-11-14T06:13:47;278.77;;;40.00;;
24153;SDS011;12312;53.362;-1.518;2022-11-14T06:16:17;305.63;;;42.88;;
24153;SDS011;12312;53.362;-1.518;2022-11-14T06:18:43;149.52;;;35.50;;
24153;SDS011;12312;53.362;-1.518;2022-11-14T06:21:11;220.20;;;38.00;;
24153;SDS011;12312;53.362;-1.518;2022-11-14T06:23:43;156.45;;;35.50;;
24153;SDS011;12312;53.362;-1.518;2022-11-14T06:28:56;249.15;;;40.97;;
24153;SDS011;12312;53.362;-1.518;2022-11-14T06:31:23;187.85;;;38.05;;
24153;SDS011;12312;53.362;-1.518;2022-11-14T06:33:50;398.92;;;46.28;;
24153;SDS011;12312;53.362;-1.518;2022-11-14T06:36:16;217.30;;;39.38;;
24153;SDS011;12312;53.362;-1.518;2022-11-14T06:38:42;391.10;;;47.33;;
24153;SDS011;12312;53.362;-1.518;2022-11-14T06:43:36;368.23;;;45.35;;
24153;SDS011;12312;53.362;-1.518;2022-11-14T06:46:05;330.42;;;43.78;;
24153;SDS011;12312;53.362;-1.518;2022-11-14T06:48:32;449.92;;;46.45;;
24153;SDS011;12312;53.362;-1.518;2022-11-14T06:50:58;470.83;;;46.47;;
24153;SDS011;12312;53.362;-1.518;2022-11-14T06:53:26;145.75;;;36.03;;
24153;SDS011;12312;53.362;-1.518;2022-11-14T06:55:53;302.70;;;42.53;;
24153;SDS011;12312;53.362;-1.518;2022-11-14T06:58:28;121.13;;;35.70;;
24153;SDS011;12312;53.362;-1.518;2022-11-14T07:03:37;323.98;;;42.00;;
24153;SDS011;12312;53.362;-1.518;2022-11-14T07:06:03;369.02;;;43.17;;
24153;SDS011;12312;53.362;-1.518;2022-11-14T07:08:30;353.38;;;42.88;;
24153;SDS011;12312;53.362;-1.518;2022-11-14T07:11:02;211.40;;;38.25;;
24153;SDS011;12312;53.362;-1.518;2022-11-14T07:13:28;144.65;;;33.35;;
24153;SDS011;12312;53.362;-1.518;2022-11-14T07:15:55;135.55;;;34.58;;
24153;SDS011;12312;53.362;-1.518;2022-11-14T07:18:21;172.10;;;36.30;;
24153;SDS011;12312;53.362;-1.518;2022-11-14T07:20:46;122.32;;;34.40;;
24153;SDS011;12312;53.362;-1.518;2022-11-14T07:23:12;231.45;;;36.33;;
24153;SDS011;12312;53.362;-1.518;2022-11-14T07:25:39;140.45;;;35.50;;
24153;SDS011;12312;53.362;-1.518;2022-11-14T07:28:05;140.77;;;36.85;;
24153;SDS011;12312;53.362;-1.518;2022-11-14T07:30:31;148.25;;;36.45;;
24153;SDS011;12312;53.362;-1.518;2022-11-14T07:32:58;142.27;;;31.73;;
24153;SDS011;12312;53.362;-1.518;2022-11-14T07:35:24;132.82;;;32.50;;
24153;SDS011;12312;53.362;-1.518;2022-11-14T07:37:50;155.20;;;32.13;;
24153;SDS011;12312;53.362;-1.518;2022-11-14T07:40:16;154.05;;;33.08;;
24153;SDS011;12312;53.362;-1.518;2022-11-14T07:42:43;130.85;;;31.42;;
24153;SDS011;12312;53.362;-1.518;2022-11-14T07:45:08;118.18;;;30.27;;
24153;SDS011;12312;53.362;-1.518;2022-11-14T07:47:35;127.70;;;31.38;;
24153;SDS011;12312;53.362;-1.518;2022-11-14T07:50:01;179.20;;;32.85;;
24153;SDS011;12312;53.362;-1.518;2022-11-14T07:52:27;123.32;;;29.58;;
24153;SDS011;12312;53.362;-1.518;2022-11-14T07:54:55;131.52;;;32.03;;
24153;SDS011;12312;53.362;-1.518;2022-11-14T07:57:21;154.05;;;31.20;;
24153;SDS011;12312;53.362;-1.518;2022-11-14T07:59:47;107.10;;;31.00;;
24153;SDS011;12312;53.362;-1.518;2022-11-14T08:02:12;168.20;;;31.70;;
24153;SDS011;12312;53.362;-1.518;2022-11-14T08:04:42;129.23;;;31.08;;
24153;SDS011;12312;53.362;-1.518;2022-11-14T08:07:09;203.48;;;33.78;;
24153;SDS011;12312;53.362;-1.518;2022-11-14T08:09:35;218.95;;;35.58;;
24153;SDS011;12312;53.362;-1.518;2022-11-14T08:12:01;210.80;;;33.47;;
24153;SDS011;12312;53.362;-1.518;2022-11-14T08:14:27;147.77;;;32.90;;
24153;SDS011;12312;53.362;-1.518;2022-11-14T08:16:53;181.07;;;30.45;;
24153;SDS011;12312;53.362;-1.518;2022-11-14T08:19:18;149.43;;;31.02;;
24153;SDS011;12312;53.362;-1.518;2022-11-14T08:21:44;166.90;;;30.92;;
24153;SDS011;12312;53.362;-1.518;2022-11-14T08:24:10;106.35;;;28.40;;
24153;SDS011;12312;53.362;-1.518;2022-11-14T08:26:35;161.35;;;31.17;;
24153;SDS011;12312;53.362;-1.518;2022-11-14T08:29:01;302.73;;;36.55;;
24153;SDS011;12312;53.362;-1.518;2022-11-14T08:31:27;296.00;;;37.53;;
24153;SDS011;12312;53.362;-1.518;2022-11-14T08:33:53;183.38;;;31.23;;
24153;SDS011;12312;53.362;-1.518;2022-11-14T08:36:19;104.45;;;29.25;;
24153;SDS011;12312;53.362;-1.518;2022-11-14T08:38:44;162.15;;;34.38;;
24153;SDS011;12312;53.362;-1.518;2022-11-14T08:41:10;99.38;;;29.67;;
24153;SDS011;12312;53.362;-1.518;2022-11-14T08:43:36;147.80;;;31.83;;
24153;SDS011;12312;53.362;-1.518;2022-11-14T08:46:03;86.30;;;26.30;;
24153;SDS011;12312;53.362;-1.518;2022-11-14T08:48:29;82.47;;;28.70;;
24153;SDS011;12312;53.362;-1.518;2022-11-14T08:50:55;164.23;;;30.73;;
24153;SDS011;12312;53.362;-1.518;2022-11-14T08:53:22;96.47;;;29.08;;
24153;SDS011;12312;53.362;-1.518;2022-11-14T08:55:48;136.57;;;31.95;;
24153;SDS011;12312;53.362;-1.518;2022-11-14T08:58:14;150.80;;;28.83;;
24153;SDS011;12312;53.362;-1.518;2022-11-14T09:00:40;170.15;;;30.05;;
24153;SDS011;12312;53.362;-1.518;2022-11-14T09:03:08;89.53;;;27.98;;
24153;SDS011;12312;53.362;-1.518;2022-11-14T09:05:34;113.95;;;27.88;;
24153;SDS011;12312;53.362;-1.518;2022-11-14T09:08:01;73.35;;;26.92;;
24153;SDS011;12312;53.362;-1.518;2022-11-14T09:10:27;106.18;;;29.90;;
24153;SDS011;12312;53.362;-1.518;2022-11-14T09:12:56;118.50;;;28.23;;
24153;SDS011;12312;53.362;-1.518;2022-11-14T09:15:22;121.60;;;26.25;;
24153;SDS011;12312;53.362;-1.518;2022-11-14T09:17:51;107.93;;;26.30;;
24153;SDS011;12312;53.362;-1.518;2022-11-14T09:20:17;78.07;;;25.00;;
24153;SDS011;12312;53.362;-1.518;2022-11-14T09:22:44;105.28;;;28.90;;
24153;SDS011;12312;53.362;-1.518;2022-11-14T09:25:09;85.85;;;28.58;;
24153;SDS011;12312;53.362;-1.518;2022-11-14T09:27:35;87.05;;;24.55;;
24153;SDS011;12312;53.362;-1.518;2022-11-14T09:30:00;119.00;;;27.08;;
24153;SDS011;12312;53.362;-1.518;2022-11-14T09:32:27;118.50;;;25.65;;
24153;SDS011;12312;53.362;-1.518;2022-11-14T09:34:53;78.90;;;24.73;;
24153;SDS011;12312;53.362;-1.518;2022-11-14T09:37:19;99.32;;;26.50;;
24153;SDS011;12312;53.362;-1.518;2022-11-14T09:39:45;110.07;;;27.67;;
24153;SDS011;12312;53.362;-1.518;2022-11-14T09:42:17;100.40;;;27.42;;
24153;SDS011;12312;53.362;-1.518;2022-11-14T09:44:56;134.88;;;29.73;;
24153;SDS011;12312;53.362;-1.518;2022-11-14T09:47:25;108.93;;;28.92;;
24153;SDS011;12312;53.362;-1.518;2022-11-14T09:50:03;176.18;;;30.27;;
24153;SDS011;12312;53.362;-1.518;2022-11-14T09:52:36;102.82;;;28.83;;
24153;SDS011;12312;53.362;-1.518;2022-11-14T09:55:10;98.03;;;27.38;;
24153;SDS011;12312;53.362;-1.518;2022-11-14T09:57:42;126.97;;;27.83;;
24153;SDS011;12312;53.362;-1.518;2022-11-14T10:00:14;138.43;;;22.92;;
24153;SDS011;12312;53.362;-1.518;2022-11-14T10:10:53;100.32;;;25.00;;
24153;SDS011;12312;53.362;-1.518;2022-11-14T10:13:41;172.70;;;29.00;;
24153;SDS011;12312;53.362;-1.518;2022-11-14T10:19:16;125.93;;;28.27;;
24153;SDS011;12312;53.362;-1.518;2022-11-14T10:30:09;112.57;;;26.98;;
24153;SDS011;12312;53.362;-1.518;2022-11-14T10:35:17;93.68;;;26.58;;
24153;SDS011;12312;53.362;-1.518;2022-11-14T10:37:54;112.38;;;27.73;;
24153;SDS011;12312;53.362;-1.518;2022-11-14T10:40:37;171.32;;;29.58;;
24153;SDS011;12312;53.362;-1.518;2022-11-14T10:43:22;190.15;;;29.45;;
24153;SDS011;12312;53.362;-1.518;2022-11-14T10:45:53;169.73;;;28.80;;
24153;SDS011;12312;53.362;-1.518;2022-11-14T10:48:31;183.77;;;29.67;;
24153;SDS011;12312;53.362;-1.518;2022-11-14T10:56:21;80.75;;;25.20;;
24153;SDS011;12312;53.362;-1.518;2022-11-14T10:58:47;302.67;;;33.45;;
24153;SDS011;12312;53.362;-1.518;2022-11-14T11:04:12;140.13;;;26.77;;
24153;SDS011;12312;53.362;-1.518;2022-11-14T11:06:49;160.50;;;25.42;;
24153;SDS011;12312;53.362;-1.518;2022-11-14T11:09:17;96.60;;;24.63;;
24153;SDS011;12312;53.362;-1.518;2022-11-14T11:12:03;133.50;;;24.35;;
24153;SDS011;12312;53.362;-1.518;2022-11-14T11:14:30;269.75;;;29.63;;
24153;SDS011;12312;53.362;-1.518;2022-11-14T11:19:52;166.13;;;28.77;;
24153;SDS011;12312;53.362;-1.518;2022-11-14T11:24:49;193.20;;;30.40;;
24153;SDS011;12312;53.362;-1.518;2022-11-14T11:27:23;165.38;;;29.83;;
24153;SDS011;12312;53.362;-1.518;2022-11-14T11:30:02;180.90;;;28.50;;
24153;SDS011;12312;53.362;-1.518;2022-11-14T11:32:44;255.50;;;33.63;;
24153;SDS011;12312;53.362;-1.518;2022-11-14T11:35:12;220.90;;;32.33;;
24153;SDS011;12312;53.362;-1.518;2022-11-14T11:40:36;153.32;;;26.75;;
24153;SDS011;12312;53.362;-1.518;2022-11-14T11:43:03;208.32;;;28.52;;
24153;SDS011;12312;53.362;-1.518;2022-11-14T11:45:36;134.50;;;26.85;;
24153;SDS011;12312;53.362;-1.518;2022-11-14T11:48:15;220.57;;;31.52;;
24153;SDS011;12312;53.362;-1.518;2022-11-14T11:50:43;208.38;;;33.70;;
24153;SDS011;12312;53.362;-1.518;2022-11-14T11:53:13;180.43;;;32.30;;
24153;SDS011;12312;53.362;-1.518;2022-11-14T11:55:41;177.35;;;30.85;;
24153;SDS011;12312;53.362;-1.518;2022-11-14T11:58:27;282.27;;;39.60;;
24153;SDS011;12312;53.362;-1.518;2022-11-14T12:00:56;176.73;;;31.90;;
24153;SDS011;12312;53.362;-1.518;2022-11-14T12:03:23;101.35;;;31.15;;
24153;SDS011;12312;53.362;-1.518;2022-11-14T12:11:33;104.45;;;26.27;;
24153;SDS011;12312;53.362;-1.518;2022-11-14T12:22:03;156.75;;;28.40;;
24153;SDS011;12312;53.362;-1.518;2022-11-14T12:30:29;86.22;;;27.65;;
24153;SDS011;12312;53.362;-1.518;2022-11-14T12:35:49;246.90;;;33.83;;
24153;SDS011;12312;53.362;-1.518;2022-11-14T12:38:49;194.23;;;31.92;;
24153;SDS011;12312;53.362;-1.518;2022-11-14T12:41:22;217.63;;;30.60;;
24153;SDS011;12312;53.362;-1.518;2022-11-14T12:43:49;194.30;;;32.40;;
24153;SDS011;12312;53.362;-1.518;2022-11-14T12:46:16;280.85;;;34.75;;
24153;SDS011;12312;53.362;-1.518;2022-11-14T12:48:43;247.88;;;34.47;;
24153;SDS011;12312;53.362;-1.518;2022-11-14T12:53:49;134.40;;;29.88;;
24153;SDS011;12312;53.362;-1.518;2022-11-14T13:09:53;146.32;;;27.38;;
24153;SDS011;12312;53.362;-1.518;2022-11-14T13:13:06;94.07;;;26.65;;
24153;SDS011;12312;53.362;-1.518;2022-11-14T13:15:52;106.63;;;26.27;;
24153;SDS011;12312;53.362;-1.518;2022-11-14T13:27:26;71.13;;;25.48;;
24153;SDS011;12312;53.362;-1.518;2022-11-14T13:29:54;94.95;;;28.48;;
24153;SDS011;12312;53.362;-1.518;2022-11-14T13:35:15;99.72;;;34.17;;
24153;SDS011;12312;53.362;-1.518;2022-11-14T13:40:22;124.22;;;32.03;;
24153;SDS011;12312;53.362;-1.518;2022-11-14T13:43:19;104.70;;;30.33;;
24153;SDS011;12312;53.362;-1.518;2022-11-14T13:52:13;45.47;;;16.83;;
24153;SDS011;12312;53.362;-1.518;2022-11-14T13:54:47;40.35;;;18.45;;
24153;SDS011;12312;53.362;-1.518;2022-11-14T13:57:23;42.80;;;18.73;;
24153;SDS011;12312;53.362;-1.518;2022-11-14T14:11:22;41.90;;;17.00;;
24153;SDS011;12312;53.362;-1.518;2022-11-14T14:16:44;38.33;;;17.60;;
24153;SDS011;12312;53.362;-1.518;2022-11-14T14:19:27;37.67;;;17.25;;
24153;SDS011;12312;53.362;-1.518;2022-11-14T14:22:21;42.40;;;18.13;;
24153;SDS011;12312;53.362;-1.518;2022-11-14T14:27:54;40.85;;;17.30;;
24153;SDS011;12312;53.362;-1.518;2022-11-14T14:30:24;41.45;;;17.67;;
24153;SDS011;12312;53.362;-1.518;2022-11-14T14:33:02;40.92;;;17.13;;
24153;SDS011;12312;53.362;-1.518;2022-11-14T14:35:31;39.58;;;17.00;;
24153;SDS011;12312;53.362;-1.518;2022-11-14T14:37:59;41.72;;;18.20;;
24153;SDS011;12312;53.362;-1.518;2022-11-14T14:40:26;39.50;;;18.48;;
24153;SDS011;12312;53.362;-1.518;2022-11-14T14:43:00;56.95;;;22.35;;
24153;SDS011;12312;53.362;-1.518;2022-11-14T14:45:28;40.95;;;18.85;;
24153;SDS011;12312;53.362;-1.518;2022-11-14T14:50:31;41.47;;;18.85;;
24153;SDS011;12312;53.362;-1.518;2022-11-14T14:53:02;46.08;;;20.92;;
24153;SDS011;12312;53.362;-1.518;2022-11-14T14:55:32;41.00;;;19.60;;
24153;SDS011;12312;53.362;-1.518;2022-11-14T15:01:02;41.88;;;17.98;;
24153;SDS011;12312;53.362;-1.518;2022-11-14T15:03:37;40.38;;;18.98;;
24153;SDS011;12312;53.362;-1.518;2022-11-14T15:06:16;35.77;;;17.53;;
24153;SDS011;12312;53.362;-1.518;2022-11-14T15:08:44;31.80;;;16.38;;
24153;SDS011;12312;53.362;-1.518;2022-11-14T15:11:11;34.80;;;16.80;;
24153;SDS011;12312;53.362;-1.518;2022-11-14T15:13:38;39.65;;;19.48;;
24153;SDS011;12312;53.362;-1.518;2022-11-14T15:16:05;36.65;;;18.00;;
24153;SDS011;12312;53.362;-1.518;2022-11-14T15:18:32;36.67;;;18.33;;
24153;SDS011;12312;53.362;-1.518;2022-11-14T15:21:06;36.60;;;16.60;;
24153;SDS011;12312;53.362;-1.518;2022-11-14T15:23:34;31.48;;;16.23;;
24153;SDS011;12312;53.362;-1.518;2022-11-14T15:26:02;32.78;;;16.02;;
24153;SDS011;12312;53.362;-1.518;2022-11-14T15:28:30;30.75;;;16.15;;
24153;SDS011;12312;53.362;-1.518;2022-11-14T15:30:57;28.52;;;15.30;;
24153;SDS011;12312;53.362;-1.518;2022-11-14T15:33:26;27.67;;;15.73;;
24153;SDS011;12312;53.362;-1.518;2022-11-14T15:36:09;28.17;;;15.57;;
24153;SDS011;12312;53.362;-1.518;2022-11-14T15:38:38;27.52;;;15.57;;
24153;SDS011;12312;53.362;-1.518;2022-11-14T15:43:48;30.67;;;16.40;;
24153;SDS011;12312;53.362;-1.518;2022-11-14T15:48:59;33.95;;;17.55;;
24153;SDS011;12312;53.362;-1.518;2022-11-14T15:51:38;40.65;;;17.98;;
24153;SDS011;12312;53.362;-1.518;2022-11-14T15:54:17;38.85;;;18.88;;
24153;SDS011;12312;53.362;-1.518;2022-11-14T15:56:48;38.53;;;19.77;;
24153;SDS011;12312;53.362;-1.518;2022-11-14T15:59:14;35.90;;;18.02;;
24153;SDS011;12312;53.362;-1.518;2022-11-14T16:01:40;34.90;;;18.55;;
24153;SDS011;12312;53.362;-1.518;2022-11-14T16:04:13;32.88;;;17.45;;
24153;SDS011;12312;53.362;-1.518;2022-11-14T16:06:41;29.30;;;14.73;;
24153;SDS011;12312;53.362;-1.518;2022-11-14T16:09:11;28.75;;;15.70;;
24153;SDS011;12312;53.362;-1.518;2022-11-14T16:11:39;24.85;;;13.63;;
24153;SDS011;12312;53.362;-1.518;2022-11-14T16:14:05;23.65;;;13.38;;
24153;SDS011;12312;53.362;-1.518;2022-11-14T16:16:30;22.77;;;13.23;;
24153;SDS011;12312;53.362;-1.518;2022-11-14T16:18:57;24.00;;;13.63;;
24153;SDS011;12312;53.362;-1.518;2022-11-14T16:21:23;27.83;;;14.32;;
24153;SDS011;12312;53.362;-1.518;2022-11-14T16:23:48;26.75;;;15.20;;
24153;SDS011;12312;53.362;-1.518;2022-11-14T16:26:14;27.73;;;14.57;;